AUA580 LICC-LOWW
Flight info
| Callsign | AUA580 |
|---|---|
| Flight time | 1h 57m |
| Altitude | 38000 |
| Route | BUDIN DCT VEGAN DCT XOLTA DCT OBUTI OBUTI2W |
| Aircraft | A20N/M-SDE2E3FGHIJ1RWXY/LB1 |
Departure
| Time | 2026-04-23 07:21 |
|---|---|
| Airport | Catania-Fontanarossa Airport (LICC) |
Arrival
| Time | 2026-04-23 09:19 |
|---|---|
| Airport | Vienna International Airport (LOWW) |
| Time | Latitude | Longitude | Altitude | Speed | Heading |
|---|---|---|---|---|---|
| 2026-04-23 07:13 | 37.46759 | 15.05617 | 47 ft | 7 kts | 267° |
| 2026-04-23 07:13 | 37.46754 | 15.05546 | 48 ft | 8 kts | 261° |
| 2026-04-23 07:13 | 37.46746 | 15.05467 | 49 ft | 9 kts | 264° |
| 2026-04-23 07:14 | 37.46738 | 15.05381 | 50 ft | 10 kts | 262° |
| 2026-04-23 07:14 | 37.46709 | 15.05304 | 52 ft | 9 kts | 232° |
| 2026-04-23 07:14 | 37.46668 | 15.05254 | 53 ft | 7 kts | 223° |
| 2026-04-23 07:14 | 37.46632 | 15.05213 | 53 ft | 6 kts | 217° |
| 2026-04-23 07:15 | 37.46590 | 15.05208 | 53 ft | 7 kts | 158° |
| 2026-04-23 07:15 | 37.46565 | 15.05270 | 52 ft | 9 kts | 90° |
| 2026-04-23 07:15 | 37.46566 | 15.05296 | 51 ft | 0 kts | 84° |
| 2026-04-23 07:20 | 37.46583 | 15.05500 | 47 ft | 61 kts | 84° |
| 2026-04-23 07:21 | 37.46656 | 15.06351 | 28 ft | 131 kts | 84° |
| 2026-04-23 07:21 | 37.46763 | 15.07615 | 380 ft | 152 kts | 84° |
| 2026-04-23 07:21 | 37.46886 | 15.08957 | 962 ft | 161 kts | 81° |
| 2026-04-23 07:21 | 37.47063 | 15.10340 | 1689 ft | 164 kts | 78° |
| 2026-04-23 07:22 | 37.47262 | 15.11774 | 2255 ft | 174 kts | 77° |
| 2026-04-23 07:22 | 37.47487 | 15.13345 | 2712 ft | 193 kts | 78° |
| 2026-04-23 07:22 | 37.47735 | 15.15092 | 3169 ft | 214 kts | 78° |
| 2026-04-23 07:22 | 37.48003 | 15.17004 | 3715 ft | 232 kts | 78° |
| 2026-04-23 07:23 | 37.48291 | 15.19095 | 4317 ft | 249 kts | 78° |
| 2026-04-23 07:23 | 37.48584 | 15.21231 | 5093 ft | 256 kts | 77° |
| 2026-04-23 07:23 | 37.48890 | 15.23454 | 5887 ft | 264 kts | 77° |
| 2026-04-23 07:23 | 37.49205 | 15.25744 | 6662 ft | 271 kts | 76° |
| 2026-04-23 07:24 | 37.49628 | 15.28073 | 7426 ft | 274 kts | 62° |
| 2026-04-23 07:24 | 37.50752 | 15.29938 | 8156 ft | 270 kts | 32° |
| 2026-04-23 07:24 | 37.52336 | 15.31194 | 8781 ft | 278 kts | 25° |
| 2026-04-23 07:24 | 37.54010 | 15.32436 | 9586 ft | 283 kts | 24° |
| 2026-04-23 07:25 | 37.55712 | 15.33723 | 10392 ft | 287 kts | 25° |
| 2026-04-23 07:25 | 37.57435 | 15.35039 | 10998 ft | 298 kts | 25° |
| 2026-04-23 07:25 | 37.59250 | 15.36442 | 11598 ft | 309 kts | 25° |
| 2026-04-23 07:25 | 37.61086 | 15.37876 | 12319 ft | 315 kts | 25° |
| 2026-04-23 07:26 | 37.62957 | 15.39345 | 13066 ft | 320 kts | 25° |
| 2026-04-23 07:26 | 37.64835 | 15.40821 | 13807 ft | 323 kts | 25° |
| 2026-04-23 07:26 | 37.66746 | 15.42324 | 14531 ft | 328 kts | 25° |
| 2026-04-23 07:26 | 37.68704 | 15.43862 | 15236 ft | 332 kts | 25° |
| 2026-04-23 07:27 | 37.70695 | 15.45207 | 15895 ft | 326 kts | 11° |
| 2026-04-23 07:27 | 37.72901 | 15.45519 | 16582 ft | 313 kts | 347° |
| 2026-04-23 07:27 | 37.74941 | 15.44797 | 17237 ft | 307 kts | 333° |
| 2026-04-23 07:27 | 37.76930 | 15.43773 | 17885 ft | 311 kts | 333° |
| 2026-04-23 07:28 | 37.78941 | 15.42752 | 18544 ft | 315 kts | 333° |
| 2026-04-23 07:28 | 37.80996 | 15.41714 | 19189 ft | 318 kts | 333° |
| 2026-04-23 07:28 | 37.83055 | 15.40676 | 19840 ft | 320 kts | 333° |
| 2026-04-23 07:28 | 37.85124 | 15.39636 | 20484 ft | 322 kts | 333° |
| 2026-04-23 07:29 | 37.87197 | 15.38595 | 21115 ft | 325 kts | 333° |
| 2026-04-23 07:29 | 37.89308 | 15.37537 | 21713 ft | 328 kts | 333° |
| 2026-04-23 07:29 | 37.91434 | 15.36470 | 22320 ft | 331 kts | 333° |
| 2026-04-23 07:29 | 37.93584 | 15.35391 | 22941 ft | 333 kts | 333° |
| 2026-04-23 07:30 | 37.95734 | 15.34311 | 23513 ft | 336 kts | 333° |
| 2026-04-23 07:30 | 37.97892 | 15.33225 | 24086 ft | 338 kts | 333° |
| 2026-04-23 07:30 | 38.00078 | 15.32124 | 24669 ft | 340 kts | 333° |
| 2026-04-23 07:30 | 38.02300 | 15.31008 | 25302 ft | 341 kts | 333° |
| 2026-04-23 07:31 | 38.04470 | 15.29916 | 25874 ft | 342 kts | 333° |
| 2026-04-23 07:31 | 38.06692 | 15.28797 | 26370 ft | 345 kts | 333° |
| 2026-04-23 07:31 | 38.08943 | 15.27661 | 26893 ft | 347 kts | 333° |
| 2026-04-23 07:31 | 38.11175 | 15.26535 | 27404 ft | 349 kts | 333° |
| 2026-04-23 07:32 | 38.13447 | 15.25388 | 27875 ft | 352 kts | 333° |
| 2026-04-23 07:32 | 38.15717 | 15.24242 | 28317 ft | 354 kts | 334° |
| 2026-04-23 07:32 | 38.18037 | 15.23069 | 28790 ft | 356 kts | 333° |
| 2026-04-23 07:32 | 38.20346 | 15.21906 | 29227 ft | 358 kts | 333° |
| 2026-04-23 07:33 | 38.22660 | 15.20736 | 29641 ft | 360 kts | 333° |
| 2026-04-23 07:33 | 38.25011 | 15.19548 | 30025 ft | 362 kts | 333° |
| 2026-04-23 07:33 | 38.27364 | 15.18355 | 30288 ft | 367 kts | 333° |
| 2026-04-23 07:33 | 38.29748 | 15.17143 | 30549 ft | 371 kts | 333° |
| 2026-04-23 07:34 | 38.32156 | 15.15923 | 30874 ft | 373 kts | 333° |
| 2026-04-23 07:34 | 38.34565 | 15.14697 | 31182 ft | 375 kts | 333° |
| 2026-04-23 07:34 | 38.36990 | 15.13465 | 31500 ft | 376 kts | 333° |
| 2026-04-23 07:34 | 38.39407 | 15.12235 | 31793 ft | 378 kts | 333° |
| 2026-04-23 07:35 | 38.41912 | 15.11116 | 32051 ft | 383 kts | 337° |
| 2026-04-23 07:35 | 38.44506 | 15.10246 | 32386 ft | 386 kts | 341° |
| 2026-04-23 07:35 | 38.47170 | 15.09634 | 32795 ft | 388 kts | 345° |
| 2026-04-23 07:35 | 38.49840 | 15.09293 | 33196 ft | 389 kts | 349° |
| 2026-04-23 07:36 | 38.52560 | 15.09219 | 33559 ft | 392 kts | 353° |
| 2026-04-23 07:36 | 38.55283 | 15.09426 | 33876 ft | 396 kts | 358° |
| 2026-04-23 07:36 | 38.58015 | 15.09852 | 34181 ft | 398 kts | 359° |
| 2026-04-23 07:36 | 38.60756 | 15.10332 | 34513 ft | 397 kts | 359° |
| 2026-04-23 07:37 | 38.63474 | 15.10818 | 34790 ft | 396 kts | 359° |
| 2026-04-23 07:37 | 38.66213 | 15.11308 | 35031 ft | 396 kts | 359° |
| 2026-04-23 07:37 | 38.68946 | 15.11794 | 35270 ft | 395 kts | 359° |
| 2026-04-23 07:37 | 38.71658 | 15.12279 | 35516 ft | 394 kts | 359° |
| 2026-04-23 07:38 | 38.74374 | 15.12766 | 35750 ft | 394 kts | 360° |
| 2026-04-23 07:38 | 38.77054 | 15.13244 | 35949 ft | 394 kts | 360° |
| 2026-04-23 07:38 | 38.79791 | 15.13733 | 36158 ft | 393 kts | 360° |
| 2026-04-23 07:38 | 38.82497 | 15.14218 | 36344 ft | 393 kts | 359° |
| 2026-04-23 07:39 | 38.85195 | 15.14701 | 36595 ft | 393 kts | 360° |
| 2026-04-23 07:39 | 38.87911 | 15.15188 | 36838 ft | 392 kts | 360° |
| 2026-04-23 07:39 | 38.90605 | 15.15672 | 37031 ft | 391 kts | 0° |
| 2026-04-23 07:39 | 38.93280 | 15.16152 | 37163 ft | 392 kts | 360° |
| 2026-04-23 07:40 | 38.95986 | 15.16638 | 37287 ft | 394 kts | 0° |
| 2026-04-23 07:40 | 38.98711 | 15.17126 | 37428 ft | 395 kts | 0° |
| 2026-04-23 07:40 | 39.01418 | 15.17612 | 37543 ft | 396 kts | 0° |
| 2026-04-23 07:40 | 39.04141 | 15.18101 | 37659 ft | 397 kts | 0° |
| 2026-04-23 07:41 | 39.06864 | 15.18593 | 37803 ft | 397 kts | 0° |
| 2026-04-23 07:41 | 39.09626 | 15.19092 | 37913 ft | 398 kts | 1° |
| 2026-04-23 07:41 | 39.12376 | 15.19586 | 38044 ft | 399 kts | 1° |
| 2026-04-23 07:42 | 39.17864 | 15.20581 | 38056 ft | 399 kts | 1° |
| 2026-04-23 07:42 | 39.23381 | 15.21581 | 38061 ft | 400 kts | 1° |
| 2026-04-23 07:43 | 39.28862 | 15.22575 | 38060 ft | 401 kts | 1° |
| 2026-04-23 07:43 | 39.34413 | 15.23584 | 38068 ft | 401 kts | 1° |
| 2026-04-23 07:44 | 39.39920 | 15.24588 | 38066 ft | 402 kts | 1° |
| 2026-04-23 07:44 | 39.45454 | 15.25597 | 38064 ft | 402 kts | 1° |
| 2026-04-23 07:45 | 39.50972 | 15.26605 | 38070 ft | 402 kts | 1° |
| 2026-04-23 07:45 | 39.56528 | 15.27618 | 38078 ft | 404 kts | 1° |
| 2026-04-23 07:46 | 39.62072 | 15.28633 | 38075 ft | 404 kts | 1° |
| 2026-04-23 07:46 | 39.67655 | 15.29658 | 38065 ft | 404 kts | 2° |
| 2026-04-23 07:47 | 39.73205 | 15.30677 | 38087 ft | 405 kts | 1° |
| 2026-04-23 07:47 | 39.78777 | 15.31704 | 38073 ft | 404 kts | 2° |
| 2026-04-23 07:48 | 39.84351 | 15.32731 | 38083 ft | 405 kts | 2° |
| 2026-04-23 07:48 | 39.89907 | 15.33756 | 38081 ft | 406 kts | 2° |
| 2026-04-23 07:49 | 39.95512 | 15.34793 | 38090 ft | 406 kts | 2° |
| 2026-04-23 07:49 | 40.01088 | 15.35824 | 38080 ft | 407 kts | 2° |
| 2026-04-23 07:50 | 40.06719 | 15.36870 | 38093 ft | 406 kts | 2° |
| 2026-04-23 07:50 | 40.12317 | 15.37912 | 38089 ft | 407 kts | 2° |
| 2026-04-23 07:51 | 40.17909 | 15.38951 | 38096 ft | 407 kts | 3° |
| 2026-04-23 07:51 | 40.23513 | 15.39998 | 38096 ft | 407 kts | 2° |
| 2026-04-23 07:52 | 40.29118 | 15.41045 | 38071 ft | 407 kts | 3° |
| 2026-04-23 07:52 | 40.34699 | 15.42090 | 38121 ft | 407 kts | 3° |
| 2026-04-23 07:53 | 40.40292 | 15.43138 | 38099 ft | 406 kts | 3° |
| 2026-04-23 07:53 | 40.45900 | 15.44189 | 38101 ft | 407 kts | 3° |
| 2026-04-23 07:54 | 40.51474 | 15.45237 | 38101 ft | 408 kts | 3° |
| 2026-04-23 07:54 | 40.57103 | 15.46297 | 38114 ft | 408 kts | 4° |
| 2026-04-23 07:55 | 40.62704 | 15.47232 | 38113 ft | 407 kts | 1° |
| 2026-04-23 07:55 | 40.68314 | 15.47954 | 38119 ft | 407 kts | 1° |
| 2026-04-23 07:56 | 40.73967 | 15.48679 | 38112 ft | 406 kts | 1° |
| 2026-04-23 07:56 | 40.79582 | 15.49403 | 38128 ft | 407 kts | 1° |
| 2026-04-23 07:57 | 40.85199 | 15.50129 | 38127 ft | 407 kts | 1° |
| 2026-04-23 07:57 | 40.90823 | 15.50857 | 38117 ft | 408 kts | 2° |
| 2026-04-23 07:58 | 40.96466 | 15.51590 | 38130 ft | 408 kts | 2° |
| 2026-04-23 07:58 | 41.02113 | 15.52326 | 38131 ft | 408 kts | 2° |
| 2026-04-23 07:59 | 41.07743 | 15.53059 | 38142 ft | 408 kts | 2° |
| 2026-04-23 07:59 | 41.13409 | 15.53800 | 38150 ft | 407 kts | 2° |
| 2026-04-23 08:00 | 41.19015 | 15.54535 | 38153 ft | 408 kts | 2° |
| 2026-04-23 08:00 | 41.24660 | 15.55276 | 38162 ft | 408 kts | 2° |
| 2026-04-23 08:01 | 41.30312 | 15.56016 | 38166 ft | 408 kts | 2° |
| 2026-04-23 08:01 | 41.35917 | 15.56754 | 38169 ft | 408 kts | 2° |
| 2026-04-23 08:02 | 41.41568 | 15.57501 | 38172 ft | 407 kts | 3° |
| 2026-04-23 08:02 | 41.47211 | 15.58244 | 38172 ft | 407 kts | 3° |
| 2026-04-23 08:03 | 41.52826 | 15.58987 | 38174 ft | 407 kts | 3° |
| 2026-04-23 08:03 | 41.58463 | 15.59734 | 38174 ft | 407 kts | 3° |
| 2026-04-23 08:04 | 41.64068 | 15.60479 | 38170 ft | 406 kts | 3° |
| 2026-04-23 08:04 | 41.69685 | 15.61225 | 38173 ft | 406 kts | 3° |
| 2026-04-23 08:05 | 41.75313 | 15.61977 | 38164 ft | 407 kts | 4° |
| 2026-04-23 08:05 | 41.80938 | 15.62727 | 38161 ft | 406 kts | 4° |
| 2026-04-23 08:06 | 41.86540 | 15.63475 | 38162 ft | 407 kts | 4° |
| 2026-04-23 08:06 | 41.92174 | 15.64228 | 38168 ft | 407 kts | 4° |
| 2026-04-23 08:07 | 41.97800 | 15.64983 | 38177 ft | 407 kts | 4° |
| 2026-04-23 08:07 | 42.03413 | 15.65737 | 38183 ft | 407 kts | 5° |
| 2026-04-23 08:08 | 42.09009 | 15.66491 | 38185 ft | 407 kts | 5° |
| 2026-04-23 08:08 | 42.14674 | 15.67255 | 38187 ft | 407 kts | 5° |
| 2026-04-23 08:09 | 42.20266 | 15.68009 | 38186 ft | 407 kts | 5° |
| 2026-04-23 08:09 | 42.25899 | 15.68773 | 38189 ft | 407 kts | 5° |
| 2026-04-23 08:10 | 42.31543 | 15.69538 | 38185 ft | 407 kts | 5° |
| 2026-04-23 08:10 | 42.39986 | 15.70684 | 38185 ft | 407 kts | 5° |
| 2026-04-23 08:11 | 42.45589 | 15.71448 | 38185 ft | 407 kts | 6° |
| 2026-04-23 08:11 | 42.51221 | 15.72218 | 38186 ft | 408 kts | 6° |
| 2026-04-23 08:12 | 42.56864 | 15.72990 | 38183 ft | 408 kts | 6° |
| 2026-04-23 08:12 | 42.62504 | 15.73761 | 38187 ft | 409 kts | 6° |
| 2026-04-23 08:13 | 42.68157 | 15.74536 | 38183 ft | 409 kts | 6° |
| 2026-04-23 08:13 | 42.73819 | 15.75306 | 38183 ft | 410 kts | 6° |
| 2026-04-23 08:14 | 42.79485 | 15.76070 | 38185 ft | 410 kts | 6° |
| 2026-04-23 08:14 | 42.85144 | 15.76833 | 38183 ft | 411 kts | 6° |
| 2026-04-23 08:15 | 42.90826 | 15.77599 | 38185 ft | 411 kts | 6° |
| 2026-04-23 08:15 | 42.96500 | 15.78365 | 38184 ft | 410 kts | 6° |
| 2026-04-23 08:16 | 43.02189 | 15.79137 | 38183 ft | 412 kts | 6° |
| 2026-04-23 08:16 | 43.07870 | 15.79908 | 38191 ft | 413 kts | 7° |
| 2026-04-23 08:17 | 43.13602 | 15.80690 | 38192 ft | 412 kts | 7° |
| 2026-04-23 08:17 | 43.19289 | 15.81465 | 38193 ft | 411 kts | 7° |
| 2026-04-23 08:18 | 43.24967 | 15.82243 | 38190 ft | 411 kts | 7° |
| 2026-04-23 08:18 | 43.30640 | 15.83017 | 38188 ft | 412 kts | 7° |
| 2026-04-23 08:19 | 43.36318 | 15.83799 | 38181 ft | 410 kts | 7° |
| 2026-04-23 08:19 | 43.42015 | 15.84580 | 38179 ft | 410 kts | 7° |
| 2026-04-23 08:20 | 43.47652 | 15.85356 | 38182 ft | 410 kts | 7° |
| 2026-04-23 08:20 | 43.53337 | 15.86141 | 38176 ft | 410 kts | 7° |
| 2026-04-23 08:21 | 43.58990 | 15.86921 | 38185 ft | 410 kts | 7° |
| 2026-04-23 08:21 | 43.64674 | 15.87706 | 38185 ft | 410 kts | 8° |
| 2026-04-23 08:22 | 43.70335 | 15.88493 | 38182 ft | 410 kts | 8° |
| 2026-04-23 08:22 | 43.75966 | 15.89276 | 38187 ft | 410 kts | 8° |
| 2026-04-23 08:23 | 43.81629 | 15.90066 | 38187 ft | 410 kts | 8° |
| 2026-04-23 08:23 | 43.87284 | 15.90855 | 38183 ft | 409 kts | 8° |
| 2026-04-23 08:24 | 43.92948 | 15.91645 | 38181 ft | 408 kts | 8° |
| 2026-04-23 08:24 | 43.98595 | 15.92434 | 38197 ft | 409 kts | 8° |
| 2026-04-23 08:25 | 44.04241 | 15.93228 | 38180 ft | 409 kts | 8° |
| 2026-04-23 08:25 | 44.09883 | 15.94020 | 38198 ft | 409 kts | 8° |
| 2026-04-23 08:26 | 44.15551 | 15.94820 | 38162 ft | 409 kts | 8° |
| 2026-04-23 08:26 | 44.21178 | 15.95617 | 38165 ft | 409 kts | 8° |
| 2026-04-23 08:27 | 44.26836 | 15.96412 | 38224 ft | 408 kts | 9° |
| 2026-04-23 08:27 | 44.32465 | 15.97213 | 38179 ft | 407 kts | 9° |
| 2026-04-23 08:28 | 44.38057 | 15.98004 | 38176 ft | 406 kts | 9° |
| 2026-04-23 08:28 | 44.43684 | 15.98804 | 38197 ft | 407 kts | 9° |
| 2026-04-23 08:29 | 44.49321 | 15.99610 | 38200 ft | 407 kts | 9° |
| 2026-04-23 08:29 | 44.54948 | 16.00413 | 38201 ft | 406 kts | 9° |
| 2026-04-23 08:30 | 44.60526 | 16.01211 | 38186 ft | 407 kts | 9° |
| 2026-04-23 08:30 | 44.66151 | 16.02016 | 38200 ft | 406 kts | 9° |
| 2026-04-23 08:31 | 44.71761 | 16.02821 | 38234 ft | 406 kts | 9° |
| 2026-04-23 08:31 | 44.77350 | 16.03625 | 38248 ft | 405 kts | 9° |
| 2026-04-23 08:32 | 44.82957 | 16.04435 | 38228 ft | 404 kts | 9° |
| 2026-04-23 08:32 | 44.88556 | 16.05243 | 38231 ft | 406 kts | 10° |
| 2026-04-23 08:33 | 44.94147 | 16.06051 | 38233 ft | 405 kts | 10° |
| 2026-04-23 08:33 | 44.99712 | 16.06858 | 38227 ft | 405 kts | 10° |
| 2026-04-23 08:34 | 45.05311 | 16.07673 | 38242 ft | 404 kts | 10° |
| 2026-04-23 08:34 | 45.10863 | 16.08483 | 38248 ft | 402 kts | 10° |
| 2026-04-23 08:35 | 45.16431 | 16.09294 | 38241 ft | 401 kts | 10° |
| 2026-04-23 08:35 | 45.21983 | 16.10104 | 38232 ft | 402 kts | 10° |
| 2026-04-23 08:36 | 45.27520 | 16.10918 | 38237 ft | 402 kts | 10° |
| 2026-04-23 08:36 | 45.33061 | 16.11730 | 38227 ft | 401 kts | 10° |
| 2026-04-23 08:37 | 45.38620 | 16.12547 | 38245 ft | 401 kts | 10° |
| 2026-04-23 08:37 | 45.44138 | 16.13361 | 38238 ft | 400 kts | 10° |
| 2026-04-23 08:38 | 45.49656 | 16.14175 | 38244 ft | 400 kts | 10° |
| 2026-04-23 08:38 | 45.55168 | 16.14989 | 38242 ft | 400 kts | 10° |
| 2026-04-23 08:39 | 45.60700 | 16.15810 | 38254 ft | 400 kts | 10° |
| 2026-04-23 08:39 | 45.66223 | 16.16630 | 38236 ft | 399 kts | 10° |
| 2026-04-23 08:40 | 45.71746 | 16.17451 | 38235 ft | 399 kts | 10° |
| 2026-04-23 08:40 | 45.77262 | 16.18273 | 38234 ft | 399 kts | 11° |
| 2026-04-23 08:41 | 45.82751 | 16.19094 | 38236 ft | 398 kts | 11° |
| 2026-04-23 08:41 | 45.88220 | 16.19912 | 38231 ft | 397 kts | 10° |
| 2026-04-23 08:42 | 45.93713 | 16.20736 | 38235 ft | 396 kts | 11° |
| 2026-04-23 08:42 | 45.99178 | 16.21555 | 38060 ft | 397 kts | 11° |
| 2026-04-23 08:43 | 46.01918 | 16.21967 | 37750 ft | 394 kts | 11° |
| 2026-04-23 08:43 | 46.04607 | 16.22371 | 37435 ft | 391 kts | 11° |
| 2026-04-23 08:43 | 46.07299 | 16.22777 | 37068 ft | 387 kts | 11° |
| 2026-04-23 08:43 | 46.09987 | 16.23182 | 36664 ft | 386 kts | 11° |
| 2026-04-23 08:44 | 46.12629 | 16.23582 | 36249 ft | 385 kts | 11° |
| 2026-04-23 08:44 | 46.15282 | 16.23985 | 35761 ft | 386 kts | 11° |
| 2026-04-23 08:44 | 46.17944 | 16.24388 | 35221 ft | 388 kts | 11° |
| 2026-04-23 08:44 | 46.20634 | 16.24798 | 34639 ft | 390 kts | 11° |
| 2026-04-23 08:45 | 46.23322 | 16.25206 | 34008 ft | 392 kts | 11° |
| 2026-04-23 08:45 | 46.26028 | 16.25619 | 33358 ft | 393 kts | 11° |
| 2026-04-23 08:45 | 46.28735 | 16.26031 | 32701 ft | 395 kts | 10° |
| 2026-04-23 08:45 | 46.31492 | 16.26452 | 32092 ft | 395 kts | 10° |
| 2026-04-23 08:46 | 46.34209 | 16.26767 | 31651 ft | 392 kts | 7° |
| 2026-04-23 08:46 | 46.36922 | 16.26850 | 31210 ft | 390 kts | 4° |
| 2026-04-23 08:46 | 46.39608 | 16.26703 | 30754 ft | 389 kts | 1° |
| 2026-04-23 08:46 | 46.42279 | 16.26328 | 30265 ft | 388 kts | 358° |
| 2026-04-23 08:47 | 46.44933 | 16.25757 | 29807 ft | 385 kts | 356° |
| 2026-04-23 08:47 | 46.47558 | 16.25141 | 29389 ft | 380 kts | 356° |
| 2026-04-23 08:47 | 46.50131 | 16.24527 | 28963 ft | 376 kts | 356° |
| 2026-04-23 08:47 | 46.52703 | 16.23916 | 28533 ft | 372 kts | 356° |
| 2026-04-23 08:48 | 46.55234 | 16.23312 | 28104 ft | 368 kts | 356° |
| 2026-04-23 08:48 | 46.57729 | 16.22720 | 27678 ft | 365 kts | 356° |
| 2026-04-23 08:48 | 46.60236 | 16.22123 | 27239 ft | 362 kts | 356° |
| 2026-04-23 08:48 | 46.62691 | 16.21539 | 26811 ft | 359 kts | 356° |
| 2026-04-23 08:49 | 46.65144 | 16.20954 | 26385 ft | 357 kts | 356° |
| 2026-04-23 08:49 | 46.67598 | 16.20370 | 25959 ft | 354 kts | 356° |
| 2026-04-23 08:49 | 46.69996 | 16.19800 | 25546 ft | 351 kts | 355° |
| 2026-04-23 08:49 | 46.72391 | 16.19227 | 25130 ft | 349 kts | 355° |
| 2026-04-23 08:50 | 46.74772 | 16.18657 | 24715 ft | 346 kts | 356° |
| 2026-04-23 08:50 | 46.77134 | 16.18094 | 24303 ft | 344 kts | 356° |
| 2026-04-23 08:50 | 46.79477 | 16.17532 | 23896 ft | 341 kts | 355° |
| 2026-04-23 08:50 | 46.81815 | 16.16972 | 23497 ft | 338 kts | 355° |
| 2026-04-23 08:51 | 46.84110 | 16.16422 | 23109 ft | 336 kts | 355° |
| 2026-04-23 08:51 | 46.86407 | 16.15871 | 22701 ft | 334 kts | 355° |
| 2026-04-23 08:51 | 46.88706 | 16.15319 | 22280 ft | 332 kts | 355° |
| 2026-04-23 08:51 | 46.90955 | 16.14779 | 21870 ft | 330 kts | 355° |
| 2026-04-23 08:52 | 46.93184 | 16.14242 | 21467 ft | 328 kts | 355° |
| 2026-04-23 08:52 | 46.95452 | 16.13695 | 21050 ft | 326 kts | 355° |
| 2026-04-23 08:52 | 46.97683 | 16.13158 | 20617 ft | 325 kts | 355° |
| 2026-04-23 08:52 | 46.99917 | 16.12619 | 20186 ft | 323 kts | 355° |
| 2026-04-23 08:53 | 47.02114 | 16.12090 | 19772 ft | 321 kts | 355° |
| 2026-04-23 08:53 | 47.04306 | 16.11562 | 19362 ft | 319 kts | 355° |
| 2026-04-23 08:53 | 47.06490 | 16.11033 | 18957 ft | 316 kts | 355° |
| 2026-04-23 08:53 | 47.08643 | 16.10512 | 18558 ft | 314 kts | 355° |
| 2026-04-23 08:54 | 47.10766 | 16.09999 | 18162 ft | 312 kts | 355° |
| 2026-04-23 08:54 | 47.12917 | 16.09477 | 17762 ft | 310 kts | 354° |
| 2026-04-23 08:54 | 47.15028 | 16.08965 | 17360 ft | 309 kts | 354° |
| 2026-04-23 08:54 | 47.17146 | 16.08451 | 16959 ft | 307 kts | 354° |
| 2026-04-23 08:55 | 47.19231 | 16.07945 | 16564 ft | 305 kts | 354° |
| 2026-04-23 08:55 | 47.21315 | 16.07436 | 16168 ft | 304 kts | 354° |
| 2026-04-23 08:55 | 47.23397 | 16.06930 | 15778 ft | 302 kts | 354° |
| 2026-04-23 08:55 | 47.25449 | 16.06430 | 15385 ft | 300 kts | 354° |
| 2026-04-23 08:56 | 47.27493 | 16.05933 | 14998 ft | 298 kts | 354° |
| 2026-04-23 08:56 | 47.29539 | 16.05433 | 14605 ft | 296 kts | 353° |
| 2026-04-23 08:56 | 47.31570 | 16.04938 | 14209 ft | 295 kts | 353° |
| 2026-04-23 08:56 | 47.33573 | 16.04448 | 13819 ft | 292 kts | 353° |
| 2026-04-23 08:57 | 47.35583 | 16.04028 | 13413 ft | 289 kts | 359° |
| 2026-04-23 08:57 | 47.37568 | 16.04179 | 13046 ft | 284 kts | 10° |
| 2026-04-23 08:57 | 47.39449 | 16.04890 | 13054 ft | 280 kts | 17° |
| 2026-04-23 08:57 | 47.41297 | 16.05780 | 13084 ft | 281 kts | 18° |
| 2026-04-23 08:58 | 47.43144 | 16.06691 | 13116 ft | 280 kts | 18° |
| 2026-04-23 08:58 | 47.44991 | 16.07605 | 13141 ft | 280 kts | 18° |
| 2026-04-23 08:58 | 47.46835 | 16.08519 | 13161 ft | 280 kts | 18° |
| 2026-04-23 08:58 | 47.48676 | 16.09432 | 13166 ft | 279 kts | 18° |
| 2026-04-23 08:59 | 47.50511 | 16.10343 | 13168 ft | 280 kts | 18° |
| 2026-04-23 08:59 | 47.52359 | 16.11262 | 13164 ft | 280 kts | 18° |
| 2026-04-23 08:59 | 47.54199 | 16.12176 | 13164 ft | 281 kts | 18° |
| 2026-04-23 08:59 | 47.56067 | 16.13104 | 13167 ft | 280 kts | 18° |
| 2026-04-23 09:00 | 47.57892 | 16.14013 | 13167 ft | 281 kts | 18° |
| 2026-04-23 09:00 | 47.59759 | 16.14943 | 13166 ft | 281 kts | 18° |
| 2026-04-23 09:00 | 47.61594 | 16.15856 | 13168 ft | 281 kts | 18° |
| 2026-04-23 09:00 | 47.63455 | 16.16786 | 13169 ft | 280 kts | 18° |
| 2026-04-23 09:01 | 47.65287 | 16.17703 | 13163 ft | 280 kts | 18° |
| 2026-04-23 09:01 | 47.67139 | 16.18628 | 13161 ft | 279 kts | 18° |
| 2026-04-23 09:01 | 47.68964 | 16.19539 | 13175 ft | 279 kts | 18° |
| 2026-04-23 09:01 | 47.70807 | 16.20463 | 13178 ft | 278 kts | 18° |
| 2026-04-23 09:02 | 47.72640 | 16.21382 | 13189 ft | 279 kts | 18° |
| 2026-04-23 09:02 | 47.74482 | 16.22306 | 13194 ft | 279 kts | 19° |
| 2026-04-23 09:02 | 47.76244 | 16.23526 | 13191 ft | 281 kts | 30° |
| 2026-04-23 09:02 | 47.77792 | 16.25260 | 13195 ft | 284 kts | 39° |
| 2026-04-23 09:03 | 47.79188 | 16.27376 | 13200 ft | 286 kts | 43° |
| 2026-04-23 09:03 | 47.80542 | 16.29525 | 13202 ft | 286 kts | 43° |
| 2026-04-23 09:03 | 47.81891 | 16.31680 | 13207 ft | 286 kts | 43° |
| 2026-04-23 09:03 | 47.83255 | 16.33862 | 13207 ft | 286 kts | 43° |
| 2026-04-23 09:04 | 47.84600 | 16.36010 | 13209 ft | 287 kts | 43° |
| 2026-04-23 09:04 | 47.85968 | 16.38196 | 13210 ft | 287 kts | 43° |
| 2026-04-23 09:04 | 47.87287 | 16.40384 | 13192 ft | 288 kts | 48° |
| 2026-04-23 09:04 | 47.88355 | 16.42917 | 12810 ft | 295 kts | 59° |
| 2026-04-23 09:05 | 47.89072 | 16.45793 | 12370 ft | 299 kts | 67° |
| 2026-04-23 09:05 | 47.89476 | 16.48842 | 11928 ft | 307 kts | 84° |
| 2026-04-23 09:05 | 47.89010 | 16.51975 | 11504 ft | 321 kts | 109° |
| 2026-04-23 09:05 | 47.87615 | 16.54655 | 11092 ft | 334 kts | 136° |
| 2026-04-23 09:06 | 47.85532 | 16.56226 | 10703 ft | 341 kts | 160° |
| 2026-04-23 09:06 | 47.83266 | 16.57117 | 10319 ft | 341 kts | 162° |
| 2026-04-23 09:06 | 47.80966 | 16.57974 | 9991 ft | 336 kts | 162° |
| 2026-04-23 09:06 | 47.78754 | 16.58830 | 9893 ft | 323 kts | 161° |
| 2026-04-23 09:07 | 47.76631 | 16.59684 | 9799 ft | 310 kts | 161° |
| 2026-04-23 09:07 | 47.74584 | 16.60527 | 9709 ft | 298 kts | 160° |
| 2026-04-23 09:07 | 47.72617 | 16.61347 | 9455 ft | 294 kts | 161° |
| 2026-04-23 09:07 | 47.70649 | 16.62168 | 9158 ft | 292 kts | 161° |
| 2026-04-23 09:08 | 47.68755 | 16.63077 | 8838 ft | 288 kts | 148° |
| 2026-04-23 09:08 | 47.67321 | 16.64963 | 8513 ft | 268 kts | 111° |
| 2026-04-23 09:08 | 47.66902 | 16.67492 | 8214 ft | 243 kts | 76° |
| 2026-04-23 09:08 | 47.67329 | 16.69796 | 7973 ft | 228 kts | 62° |
| 2026-04-23 09:09 | 47.67888 | 16.71975 | 7710 ft | 223 kts | 56° |
| 2026-04-23 09:09 | 47.68800 | 16.73707 | 7424 ft | 208 kts | 31° |
| 2026-04-23 09:09 | 47.70058 | 16.74609 | 7156 ft | 201 kts | 9° |
| 2026-04-23 09:09 | 47.71438 | 16.74688 | 6872 ft | 198 kts | 352° |
| 2026-04-23 09:10 | 47.72778 | 16.74288 | 6627 ft | 198 kts | 347° |
| 2026-04-23 09:10 | 47.75428 | 16.73262 | 6134 ft | 196 kts | 345° |
| 2026-04-23 09:10 | 47.76742 | 16.72728 | 5884 ft | 196 kts | 345° |
| 2026-04-23 09:11 | 47.78061 | 16.72184 | 5630 ft | 196 kts | 344° |
| 2026-04-23 09:11 | 47.79362 | 16.71640 | 5380 ft | 195 kts | 344° |
| 2026-04-23 09:11 | 47.80661 | 16.71093 | 5135 ft | 194 kts | 343° |
| 2026-04-23 09:11 | 47.81959 | 16.70544 | 4892 ft | 193 kts | 343° |
| 2026-04-23 09:12 | 47.83249 | 16.69995 | 4657 ft | 193 kts | 343° |
| 2026-04-23 09:12 | 47.84527 | 16.69452 | 4425 ft | 193 kts | 342° |
| 2026-04-23 09:12 | 47.85820 | 16.68901 | 4198 ft | 193 kts | 342° |
| 2026-04-23 09:12 | 47.87120 | 16.68347 | 3970 ft | 193 kts | 342° |
| 2026-04-23 09:13 | 47.88401 | 16.67803 | 3748 ft | 192 kts | 341° |
| 2026-04-23 09:13 | 47.89674 | 16.67262 | 3495 ft | 192 kts | 341° |
| 2026-04-23 09:13 | 47.90966 | 16.66714 | 3167 ft | 193 kts | 341° |
| 2026-04-23 09:13 | 47.92233 | 16.66177 | 2955 ft | 188 kts | 341° |
| 2026-04-23 09:14 | 47.93493 | 16.65645 | 2944 ft | 186 kts | 342° |
| 2026-04-23 09:14 | 47.94702 | 16.65134 | 2926 ft | 172 kts | 342° |
| 2026-04-23 09:14 | 47.95797 | 16.64672 | 3045 ft | 155 kts | 342° |
| 2026-04-23 09:14 | 47.96779 | 16.64260 | 3043 ft | 137 kts | 341° |
| 2026-04-23 09:15 | 47.97660 | 16.63887 | 2863 ft | 128 kts | 340° |
| 2026-04-23 09:15 | 47.98496 | 16.63531 | 2700 ft | 125 kts | 340° |
| 2026-04-23 09:15 | 47.99335 | 16.63172 | 2528 ft | 124 kts | 340° |
| 2026-04-23 09:15 | 48.00166 | 16.62842 | 2358 ft | 124 kts | 340° |
| 2026-04-23 09:16 | 48.00988 | 16.62488 | 2195 ft | 123 kts | 339° |
| 2026-04-23 09:16 | 48.01812 | 16.62131 | 2021 ft | 123 kts | 341° |
| 2026-04-23 09:16 | 48.02632 | 16.61781 | 1872 ft | 122 kts | 338° |
| 2026-04-23 09:16 | 48.03445 | 16.61421 | 1696 ft | 122 kts | 340° |
| 2026-04-23 09:17 | 48.04263 | 16.61106 | 1550 ft | 122 kts | 339° |
| 2026-04-23 09:17 | 48.05078 | 16.60751 | 1400 ft | 121 kts | 341° |
| 2026-04-23 09:17 | 48.05891 | 16.60404 | 1257 ft | 121 kts | 342° |
| 2026-04-23 09:17 | 48.06701 | 16.60065 | 1068 ft | 121 kts | 341° |
| 2026-04-23 09:18 | 48.07500 | 16.59697 | 929 ft | 120 kts | 339° |
| 2026-04-23 09:18 | 48.08298 | 16.59360 | 762 ft | 119 kts | 343° |
| 2026-04-23 09:18 | 48.09095 | 16.59038 | 641 ft | 117 kts | 342° |
| 2026-04-23 09:18 | 48.09835 | 16.58717 | 609 ft | 92 kts | 349° |
| 2026-04-23 09:19 | 48.10297 | 16.58530 | 609 ft | 51 kts | 342° |
| 2026-04-23 09:19 | 48.10599 | 16.58391 | 609 ft | 40 kts | 337° |
| 2026-04-23 09:19 | 48.10744 | 16.58248 | 609 ft | 20 kts | 300° |
| 2026-04-23 09:19 | 48.10841 | 16.58110 | 609 ft | 19 kts | 317° |
| 2026-04-23 09:20 | 48.10924 | 16.57990 | 609 ft | 14 kts | 322° |
| 2026-04-23 09:20 | 48.10978 | 16.57963 | 608 ft | 7 kts | 343° |
| 2026-04-23 09:20 | 48.11031 | 16.57938 | 608 ft | 8 kts | 342° |
| 2026-04-23 09:20 | 48.11093 | 16.57908 | 609 ft | 9 kts | 342° |
| 2026-04-23 09:21 | 48.11160 | 16.57877 | 609 ft | 10 kts | 346° |
| 2026-04-23 09:21 | 48.11233 | 16.57852 | 609 ft | 11 kts | 346° |
| 2026-04-23 09:21 | 48.11311 | 16.57819 | 609 ft | 12 kts | 343° |
| 2026-04-23 09:21 | 48.11405 | 16.57778 | 608 ft | 15 kts | 343° |
| 2026-04-23 09:22 | 48.11523 | 16.57727 | 609 ft | 19 kts | 343° |
| 2026-04-23 09:22 | 48.11656 | 16.57669 | 609 ft | 19 kts | 345° |
| 2026-04-23 09:22 | 48.11784 | 16.57619 | 609 ft | 17 kts | 341° |
| 2026-04-23 09:22 | 48.11823 | 16.57480 | 609 ft | 7 kts | 253° |
| 2026-04-23 09:23 | 48.11822 | 16.57478 | 609 ft | 0 kts | 253° |